createdAt,value
2023-02-13T00:00:09.682Z,79.70
2023-02-13T00:02:36.375Z,79.90
2023-02-13T00:05:03.110Z,79.80
2023-02-13T00:07:29.692Z,80.00
2023-02-13T00:09:56.478Z,79.70
2023-02-13T00:12:23.126Z,79.80
2023-02-13T00:14:49.801Z,79.60
2023-02-13T00:17:16.422Z,79.90
2023-02-13T00:19:43.144Z,80.50
2023-02-13T00:22:09.929Z,80.30
2023-02-13T00:24:36.554Z,81.20
2023-02-13T00:27:03.313Z,80.10
2023-02-13T00:29:29.921Z,80.00
2023-02-13T00:31:56.742Z,80.30
2023-02-13T00:34:23.496Z,80.40
2023-02-13T00:36:50.122Z,80.30
2023-02-13T00:39:16.773Z,80.30
2023-02-13T00:41:43.380Z,80.10
2023-02-13T00:44:10.747Z,80.10
2023-02-13T00:46:38.733Z,79.80
2023-02-13T00:49:06.105Z,80.00
2023-02-13T00:51:32.765Z,80.00
2023-02-13T00:53:59.483Z,80.00
2023-02-13T00:56:26.084Z,80.00
2023-02-13T00:58:52.776Z,79.80
2023-02-13T01:01:19.588Z,80.30
2023-02-13T01:03:46.468Z,80.20
2023-02-13T01:06:13.136Z,80.00
2023-02-13T01:08:40.873Z,79.90
2023-02-13T01:11:07.762Z,80.10
2023-02-13T01:13:34.719Z,80.00
2023-02-13T01:16:01.425Z,79.60
2023-02-13T01:18:28.371Z,79.70
2023-02-13T01:21:05.996Z,79.90
2023-02-13T01:23:37.666Z,80.20
2023-02-13T01:26:06.176Z,80.40
2023-02-13T01:28:32.934Z,80.30
2023-02-13T01:31:00.706Z,80.10
2023-02-13T01:33:28.865Z,80.30
2023-02-13T01:35:55.557Z,80.30
2023-02-13T01:38:22.650Z,80.30
2023-02-13T01:40:53.590Z,79.90
2023-02-13T01:43:23.430Z,79.70
2023-02-13T01:45:56.315Z,80.30
2023-02-13T01:48:25.570Z,81.00
2023-02-13T01:51:06.281Z,81.50
2023-02-13T01:53:41.327Z,81.40
2023-02-13T01:56:20.178Z,81.20
2023-02-13T01:58:52.759Z,80.70
2023-02-13T02:01:20.372Z,80.80
2023-02-13T02:04:04.490Z,81.00
2023-02-13T02:06:37.826Z,80.60
2023-02-13T02:09:11.516Z,81.60
2023-02-13T02:11:48.769Z,82.00
2023-02-13T02:14:15.520Z,81.80
2023-02-13T02:16:42.446Z,81.90
2023-02-13T02:19:26.325Z,81.90
2023-02-13T02:22:16.252Z,81.50
2023-02-13T02:25:01.009Z,82.30
2023-02-13T02:27:36.562Z,82.20
2023-02-13T02:30:03.112Z,81.90
2023-02-13T02:33:04.974Z,81.70
2023-02-13T02:35:47.868Z,81.70
2023-02-13T02:38:40.375Z,81.90
2023-02-13T02:41:36.783Z,82.30
2023-02-13T02:44:17.781Z,82.10
2023-02-13T02:47:12.459Z,82.10
2023-02-13T02:50:02.156Z,82.40
2023-02-13T02:52:41.894Z,82.20
2023-02-13T02:55:47.646Z,81.70
2023-02-13T02:58:43.878Z,81.80
2023-02-13T03:01:34.056Z,82.00
2023-02-13T03:04:20.108Z,81.50
2023-02-13T03:06:51.750Z,81.90
2023-02-13T03:09:47.306Z,81.60
2023-02-13T03:12:38.853Z,81.80
2023-02-13T03:15:05.794Z,83.30
2023-02-13T03:17:51.428Z,82.50
2023-02-13T03:21:07.427Z,81.80
2023-02-13T03:23:56.501Z,82.70
2023-02-13T03:26:45.386Z,82.70
2023-02-13T03:30:05.070Z,82.30
2023-02-13T03:32:36.693Z,82.60
2023-02-13T03:35:42.569Z,82.30
2023-02-13T03:38:27.537Z,82.20
2023-02-13T03:41:19.450Z,82.30
2023-02-13T03:43:52.038Z,82.20
2023-02-13T03:46:20.529Z,81.80
2023-02-13T03:49:06.770Z,81.90
2023-02-13T03:52:10.560Z,81.90
2023-02-13T03:55:04.484Z,81.90
2023-02-13T03:57:51.903Z,81.60
2023-02-13T04:00:20.847Z,81.80
2023-02-13T04:03:18.609Z,81.50
2023-02-13T04:05:51.210Z,82.20
2023-02-13T04:08:18.226Z,82.70
2023-02-13T04:11:03.790Z,82.50
2023-02-13T04:13:35.284Z,82.30
2023-02-13T04:16:18.263Z,81.90
2023-02-13T04:18:45.602Z,82.20
2023-02-13T04:21:12.263Z,81.70
2023-02-13T04:23:38.942Z,82.30
2023-02-13T04:26:16.392Z,82.20
2023-02-13T04:28:43.107Z,82.20
2023-02-13T04:31:10.094Z,82.10
2023-02-13T04:33:36.995Z,82.50
2023-02-13T04:36:03.893Z,82.30
2023-02-13T04:38:30.644Z,82.20
2023-02-13T04:40:57.599Z,82.30
2023-02-13T04:43:25.347Z,83.10
2023-02-13T04:45:52.210Z,81.90
2023-02-13T04:48:18.828Z,82.20
2023-02-13T04:50:45.515Z,82.20
2023-02-13T04:53:12.174Z,82.10
2023-02-13T04:55:38.848Z,82.00
2023-02-13T04:58:05.513Z,82.10
2023-02-13T05:00:32.390Z,82.10
2023-02-13T05:03:10.019Z,81.90
2023-02-13T05:05:36.949Z,81.90
2023-02-13T05:08:04.041Z,81.90
2023-02-13T05:10:30.928Z,81.90
2023-02-13T05:12:57.646Z,82.20
2023-02-13T05:15:24.295Z,82.50
2023-02-13T05:17:51.430Z,82.30
2023-02-13T05:20:18.734Z,82.10
2023-02-13T05:23:05.375Z,82.30
2023-02-13T05:25:32.673Z,83.00
2023-02-13T05:27:59.406Z,82.20
2023-02-13T05:30:26.096Z,82.10
2023-02-13T05:32:52.892Z,82.00
2023-02-13T05:35:19.610Z,82.00
2023-02-13T05:37:46.272Z,83.30
2023-02-13T05:40:14.273Z,82.90
2023-02-13T05:42:43.740Z,83.50
2023-02-13T05:45:10.687Z,83.10
2023-02-13T05:47:37.308Z,83.00
2023-02-13T05:50:04.114Z,83.40
2023-02-13T05:52:30.785Z,84.00
2023-02-13T05:54:57.462Z,83.70
2023-02-13T05:57:24.112Z,83.70
2023-02-13T05:59:50.705Z,83.50
2023-02-13T06:02:17.359Z,83.30
2023-02-13T06:04:44.217Z,83.30
2023-02-13T06:07:10.809Z,82.90
2023-02-13T06:09:37.459Z,83.00
2023-02-13T06:12:04.260Z,83.10
2023-02-13T06:14:30.900Z,83.20
2023-02-13T06:16:57.515Z,83.20
2023-02-13T06:19:24.123Z,82.70
2023-02-13T06:21:50.752Z,83.40
2023-02-13T06:24:17.423Z,83.60
2023-02-13T06:26:44.220Z,83.40
2023-02-13T06:29:11.284Z,83.60
2023-02-13T06:31:38.289Z,83.70
2023-02-13T06:34:04.980Z,83.60
2023-02-13T06:36:31.650Z,83.60
2023-02-13T06:38:58.255Z,83.40
2023-02-13T06:41:24.937Z,83.60
2023-02-13T06:43:51.625Z,83.70
2023-02-13T06:46:18.250Z,83.70
2023-02-13T06:48:44.892Z,83.50
2023-02-13T06:51:11.544Z,83.30
2023-02-13T06:53:38.173Z,83.50
2023-02-13T06:56:06.553Z,84.30
2023-02-13T06:58:34.185Z,84.30
2023-02-13T07:01:01.004Z,84.50
2023-02-13T07:03:27.800Z,84.20
2023-02-13T07:05:54.477Z,84.20
2023-02-13T07:08:21.135Z,84.00
2023-02-13T07:10:48.099Z,84.10
2023-02-13T07:13:15.218Z,83.70
2023-02-13T07:15:42.125Z,84.20
2023-02-13T07:18:08.908Z,84.30
2023-02-13T07:20:35.880Z,84.70
2023-02-13T07:23:04.660Z,85.00
2023-02-13T07:25:32.137Z,85.10
2023-02-13T07:28:06.801Z,84.90
2023-02-13T07:30:34.868Z,85.00
2023-02-13T07:33:02.684Z,85.30
2023-02-13T07:35:29.838Z,85.40
2023-02-13T07:37:56.769Z,85.30
2023-02-13T07:40:23.461Z,85.10
2023-02-13T07:42:50.150Z,85.30
2023-02-13T07:45:16.874Z,85.30
2023-02-13T07:47:43.656Z,84.90
2023-02-13T07:50:11.136Z,84.70
2023-02-13T07:52:38.153Z,84.60
2023-02-13T07:55:05.962Z,84.80
2023-02-13T07:57:33.323Z,85.00
2023-02-13T07:59:59.973Z,84.80
2023-02-13T08:02:26.662Z,84.90
2023-02-13T08:04:53.288Z,84.80
2023-02-13T08:07:20.122Z,85.10
2023-02-13T08:10:05.488Z,84.80
2023-02-13T08:12:34.894Z,85.10
2023-02-13T08:15:01.598Z,85.10
2023-02-13T08:17:28.269Z,85.40
2023-02-13T08:19:55.132Z,85.30
2023-02-13T08:22:22.008Z,85.10
2023-02-13T08:24:48.659Z,85.20
2023-02-13T08:27:15.659Z,85.30
2023-02-13T08:29:42.330Z,84.90
2023-02-13T08:32:09.189Z,85.10
2023-02-13T08:34:36.001Z,84.80
2023-02-13T08:37:03.580Z,85.30
2023-02-13T08:39:30.279Z,85.40
2023-02-13T08:41:56.972Z,85.40
2023-02-13T08:44:23.613Z,85.50
2023-02-13T08:46:50.281Z,85.90
2023-02-13T08:49:17.035Z,85.20
2023-02-13T08:51:43.826Z,85.00
2023-02-13T08:54:10.586Z,85.00
2023-02-13T08:56:37.254Z,85.40
2023-02-13T08:59:03.964Z,84.70
2023-02-13T09:01:30.687Z,85.10
2023-02-13T09:03:57.341Z,84.50
2023-02-13T09:06:26.231Z,84.30
2023-02-13T09:08:53.586Z,83.60
2023-02-13T09:11:23.267Z,84.30
2023-02-13T09:13:53.081Z,83.40
2023-02-13T09:16:20.273Z,83.40
2023-02-13T09:18:48.440Z,83.10
2023-02-13T09:21:15.776Z,82.10
2023-02-13T09:23:42.480Z,82.40
2023-02-13T09:26:12.254Z,82.40
2023-02-13T09:28:39.801Z,82.40
2023-02-13T09:31:10.514Z,83.50
2023-02-13T09:33:37.755Z,82.70
2023-02-13T09:36:10.225Z,82.70
2023-02-13T09:38:37.096Z,83.10
2023-02-13T09:41:09.639Z,80.80
2023-02-13T09:43:51.505Z,79.90
2023-02-13T09:46:23.031Z,81.10
2023-02-13T09:48:53.856Z,80.20
2023-02-13T09:51:23.214Z,81.10
2023-02-13T09:54:00.346Z,81.00
2023-02-13T09:56:54.637Z,80.90
2023-02-13T09:59:35.543Z,77.40
2023-02-13T10:02:32.674Z,80.10
2023-02-13T10:05:08.197Z,78.90
2023-02-13T10:08:06.034Z,78.90
2023-02-13T10:10:52.946Z,76.40
2023-02-13T10:13:35.596Z,76.80
2023-02-13T10:16:19.094Z,77.60
2023-02-13T10:18:52.003Z,76.90
2023-02-13T10:21:30.094Z,77.40
2023-02-13T10:24:35.704Z,76.30
2023-02-13T10:27:11.026Z,74.90
2023-02-13T10:30:06.566Z,76.20
2023-02-13T10:33:18.853Z,77.00
2023-02-13T10:36:09.367Z,75.30
2023-02-13T10:38:42.996Z,75.40
2023-02-13T10:41:24.888Z,74.70
2023-02-13T10:43:57.618Z,71.50
2023-02-13T10:46:37.630Z,73.00
2023-02-13T10:49:42.028Z,71.60
2023-02-13T10:52:43.552Z,74.30
2023-02-13T10:55:28.354Z,73.70
2023-02-13T10:58:22.240Z,71.40
2023-02-13T11:01:22.924Z,70.90
2023-02-13T11:04:04.447Z,72.20
2023-02-13T11:06:32.160Z,72.50
2023-02-13T11:08:59.293Z,71.70
2023-02-13T11:11:41.141Z,72.30
2023-02-13T11:14:11.659Z,69.70
2023-02-13T11:16:51.988Z,71.20
2023-02-13T11:19:46.324Z,71.60
2023-02-13T11:22:24.814Z,72.30
2023-02-13T11:24:56.345Z,69.50
2023-02-13T11:27:35.606Z,70.80
2023-02-13T11:30:06.554Z,67.90
2023-02-13T11:32:35.203Z,70.30
2023-02-13T11:35:28.572Z,70.20
2023-02-13T11:38:10.486Z,68.80
2023-02-13T11:40:37.600Z,66.70
2023-02-13T11:43:08.064Z,68.90
2023-02-13T11:45:35.205Z,67.80
2023-02-13T11:48:09.707Z,69.20
2023-02-13T11:50:37.603Z,68.20
2023-02-13T11:53:09.305Z,68.60
2023-02-13T11:55:38.223Z,66.90
2023-02-13T11:58:25.160Z,68.70
2023-02-13T12:01:19.393Z,68.60
2023-02-13T12:04:03.482Z,64.70
2023-02-13T12:06:30.909Z,67.00
2023-02-13T12:08:58.882Z,68.20
2023-02-13T12:11:49.520Z,65.70
2023-02-13T12:14:21.572Z,66.00
2023-02-13T12:16:56.776Z,67.20
2023-02-13T12:19:44.332Z,66.30
2023-02-13T12:22:29.827Z,66.70
2023-02-13T12:25:34.137Z,66.40
2023-02-13T12:28:16.043Z,65.80
2023-02-13T12:31:00.996Z,66.60
2023-02-13T12:33:30.939Z,66.40
2023-02-13T12:36:18.859Z,66.90
2023-02-13T12:39:29.487Z,66.20
2023-02-13T12:42:23.358Z,66.60
2023-02-13T12:45:14.826Z,65.70
2023-02-13T12:48:00.244Z,64.80
2023-02-13T12:50:42.872Z,66.30
2023-02-13T12:53:44.872Z,66.20
2023-02-13T12:56:27.393Z,65.30
2023-02-13T12:59:04.227Z,65.60
2023-02-13T13:01:52.197Z,65.60
2023-02-13T13:04:40.269Z,65.80
2023-02-13T13:07:25.134Z,64.90
2023-02-13T13:10:13.018Z,65.40
2023-02-13T13:12:57.003Z,66.20
2023-02-13T13:15:36.151Z,65.50
2023-02-13T13:18:50.194Z,64.80
2023-02-13T13:21:28.429Z,64.10
2023-02-13T13:24:06.927Z,65.50
2023-02-13T13:26:40.326Z,65.40
2023-02-13T13:29:23.304Z,65.20
2023-02-13T13:32:01.749Z,64.80
2023-02-13T13:34:30.378Z,64.90
2023-02-13T13:37:13.942Z,65.10
2023-02-13T13:39:55.156Z,64.90
2023-02-13T13:43:06.043Z,64.90
2023-02-13T13:45:43.217Z,65.00
2023-02-13T13:48:40.439Z,65.20
2023-02-13T13:51:16.568Z,64.70
2023-02-13T13:54:03.413Z,65.20
2023-02-13T13:57:04.345Z,64.90
2023-02-13T13:59:34.092Z,65.30
2023-02-13T14:02:20.733Z,65.80
2023-02-13T14:05:24.306Z,65.00
2023-02-13T14:07:57.477Z,65.50
2023-02-13T14:10:30.068Z,65.60
2023-02-13T14:12:56.630Z,65.50
2023-02-13T14:15:38.390Z,65.10
2023-02-13T14:18:07.899Z,64.80
2023-02-13T14:20:38.703Z,64.90
2023-02-13T14:23:31.676Z,65.10
2023-02-13T14:26:16.681Z,64.50
2023-02-13T14:28:55.150Z,64.90
2023-02-13T14:31:27.918Z,64.50
2023-02-13T14:34:00.313Z,64.70
2023-02-13T14:36:33.134Z,64.10
2023-02-13T14:39:21.924Z,64.30
2023-02-13T14:41:51.519Z,64.20
2023-02-13T14:44:23.673Z,64.10
2023-02-13T14:46:52.601Z,64.30
2023-02-13T14:49:32.070Z,64.40
2023-02-13T14:52:15.545Z,64.20
2023-02-13T14:54:55.481Z,64.00
2023-02-13T14:57:36.225Z,64.30
2023-02-13T15:00:25.982Z,64.30
2023-02-13T15:02:58.652Z,64.40
2023-02-13T15:05:32.261Z,64.40
2023-02-13T15:08:04.717Z,64.30
2023-02-13T15:10:49.741Z,64.60
2023-02-13T15:13:33.041Z,64.70
2023-02-13T15:16:08.024Z,64.80
2023-02-13T15:18:43.289Z,65.00
2023-02-13T15:21:16.452Z,64.70
2023-02-13T15:23:44.347Z,65.00
2023-02-13T15:26:23.743Z,65.20
2023-02-13T15:29:27.829Z,65.40
2023-02-13T15:31:56.759Z,65.50
2023-02-13T15:34:29.956Z,65.60
2023-02-13T15:36:57.029Z,65.40
2023-02-13T15:39:30.089Z,65.80
2023-02-13T15:42:02.712Z,66.20
2023-02-13T15:44:32.121Z,66.60
2023-02-13T15:47:26.639Z,66.70
2023-02-13T15:49:53.895Z,66.60
2023-02-13T15:52:34.277Z,66.50
2023-02-13T15:55:01.230Z,66.50
2023-02-13T15:57:28.926Z,66.80
2023-02-13T15:59:57.498Z,66.70
2023-02-13T16:02:33.696Z,66.60
2023-02-13T16:05:02.136Z,66.60
2023-02-13T16:07:30.535Z,66.80
2023-02-13T16:10:27.402Z,66.70
2023-02-13T16:12:55.765Z,66.80
2023-02-13T16:15:25.467Z,66.80
2023-02-13T16:17:52.161Z,66.90
2023-02-13T16:20:25.439Z,66.80
2023-02-13T16:22:59.105Z,66.80
2023-02-13T16:25:34.435Z,67.00
2023-02-13T16:28:03.907Z,67.40
2023-02-13T16:30:35.896Z,67.70
2023-02-13T16:33:16.278Z,67.70
2023-02-13T16:35:44.593Z,67.70
2023-02-13T16:38:27.178Z,67.70
2023-02-13T16:40:57.757Z,67.80
2023-02-13T16:43:45.049Z,68.00
2023-02-13T16:46:11.722Z,68.10
2023-02-13T16:48:38.668Z,68.30
2023-02-13T16:51:05.418Z,68.40
2023-02-13T16:53:34.213Z,68.80
2023-02-13T16:56:09.090Z,69.00
2023-02-13T16:58:35.860Z,69.20
2023-02-13T17:01:04.227Z,69.40
2023-02-13T17:03:32.426Z,69.70
2023-02-13T17:06:03.237Z,69.90
2023-02-13T17:08:31.454Z,70.10
2023-02-13T17:11:06.812Z,70.50
2023-02-13T17:13:34.632Z,70.70
2023-02-13T17:16:01.402Z,71.10
2023-02-13T17:18:28.108Z,71.30
2023-02-13T17:20:55.258Z,71.50
2023-02-13T17:23:24.498Z,71.90
2023-02-13T17:25:53.579Z,72.10
2023-02-13T17:28:24.175Z,72.60
2023-02-13T17:30:54.072Z,72.70
2023-02-13T17:33:29.432Z,73.00
2023-02-13T17:35:56.547Z,73.40
2023-02-13T17:38:23.371Z,73.60
2023-02-13T17:40:50.341Z,73.70
2023-02-13T17:43:18.866Z,73.90
2023-02-13T17:45:46.862Z,74.20
2023-02-13T17:48:14.027Z,74.40
2023-02-13T17:50:40.859Z,74.50
2023-02-13T17:53:27.701Z,74.90
2023-02-13T17:55:54.701Z,75.20
2023-02-13T17:58:21.331Z,75.70
2023-02-13T18:00:48.018Z,75.90
2023-02-13T18:03:14.818Z,76.00
2023-02-13T18:05:41.643Z,76.20
2023-02-13T18:08:08.947Z,76.30
2023-02-13T18:10:36.837Z,76.60
2023-02-13T18:13:06.902Z,77.00
2023-02-13T18:15:35.424Z,77.30
2023-02-13T18:18:02.173Z,77.50
2023-02-13T18:20:28.818Z,77.70
2023-02-13T18:22:55.623Z,77.90
2023-02-13T18:25:23.629Z,78.10
2023-02-13T18:27:51.051Z,78.30
2023-02-13T18:30:20.070Z,78.30
2023-02-13T18:32:51.911Z,78.60
2023-02-13T18:35:18.973Z,78.80
2023-02-13T18:37:45.777Z,78.80
2023-02-13T18:40:14.990Z,78.90
2023-02-13T18:42:41.695Z,79.20
2023-02-13T18:45:09.337Z,79.40
2023-02-13T18:47:35.984Z,79.50
2023-02-13T18:50:02.674Z,79.70
2023-02-13T18:52:29.320Z,79.90
2023-02-13T18:54:56.380Z,80.10
2023-02-13T18:57:23.074Z,79.80
2023-02-13T18:59:51.508Z,80.00
2023-02-13T19:02:18.220Z,79.80
2023-02-13T19:04:45.037Z,79.60
2023-02-13T19:07:11.733Z,80.30
2023-02-13T19:09:40.313Z,80.50
2023-02-13T19:12:07.925Z,80.50
2023-02-13T19:14:34.639Z,80.10
2023-02-13T19:17:01.316Z,79.80
2023-02-13T19:19:27.988Z,79.90
2023-02-13T19:21:54.694Z,79.90
2023-02-13T19:24:21.445Z,80.00
2023-02-13T19:26:48.168Z,80.10
2023-02-13T19:29:14.893Z,79.90
2023-02-13T19:31:41.722Z,80.00
2023-02-13T19:34:08.671Z,80.20
2023-02-13T19:36:35.257Z,80.40
2023-02-13T19:39:03.922Z,80.90
2023-02-13T19:41:31.522Z,81.20
2023-02-13T19:43:58.577Z,81.30
2023-02-13T19:46:30.666Z,81.20
2023-02-13T19:48:57.709Z,81.50
2023-02-13T19:51:27.710Z,81.20
2023-02-13T19:54:05.751Z,80.90
2023-02-13T19:56:35.299Z,80.80
2023-02-13T19:59:02.155Z,81.10
2023-02-13T20:01:29.580Z,81.20
2023-02-13T20:03:56.696Z,81.10
2023-02-13T20:06:31.464Z,80.80
2023-02-13T20:09:00.526Z,81.00
2023-02-13T20:11:27.722Z,81.00
2023-02-13T20:14:00.531Z,81.40
2023-02-13T20:16:28.823Z,81.30
2023-02-13T20:18:55.582Z,81.20
2023-02-13T20:21:22.368Z,81.30
2023-02-13T20:23:51.294Z,81.80
2023-02-13T20:26:18.540Z,81.90
2023-02-13T20:28:46.131Z,81.80
2023-02-13T20:31:19.553Z,81.90
2023-02-13T20:33:46.993Z,82.00
2023-02-13T20:36:19.564Z,81.90
2023-02-13T20:38:46.640Z,81.90
2023-02-13T20:41:16.045Z,82.20
2023-02-13T20:43:43.254Z,81.80
2023-02-13T20:46:10.306Z,81.70
2023-02-13T20:48:38.481Z,81.90
2023-02-13T20:51:08.025Z,82.10
2023-02-13T20:53:35.300Z,82.20
2023-02-13T20:56:16.212Z,83.20
2023-02-13T20:58:45.130Z,82.00
2023-02-13T21:01:16.528Z,82.10
2023-02-13T21:03:44.135Z,81.90
2023-02-13T21:06:11.511Z,82.30
2023-02-13T21:08:38.876Z,82.50
2023-02-13T21:11:07.334Z,82.70
2023-02-13T21:13:35.120Z,82.50
2023-02-13T21:16:14.518Z,82.70
2023-02-13T21:18:42.054Z,82.90
2023-02-13T21:21:10.747Z,83.10
2023-02-13T21:23:38.499Z,83.10
2023-02-13T21:26:11.238Z,83.10
2023-02-13T21:28:39.278Z,83.00
2023-02-13T21:31:15.382Z,83.10
2023-02-13T21:33:42.561Z,82.90
2023-02-13T21:36:11.723Z,83.20
2023-02-13T21:38:39.632Z,83.20
2023-02-13T21:41:14.579Z,83.30
2023-02-13T21:43:42.225Z,83.30
2023-02-13T21:46:11.342Z,83.40
2023-02-13T21:48:39.271Z,83.30
2023-02-13T21:51:07.687Z,83.30
2023-02-13T21:53:34.450Z,83.40
2023-02-13T21:56:03.052Z,84.30
2023-02-13T21:58:33.102Z,83.00
2023-02-13T22:01:00.330Z,82.50
2023-02-13T22:03:27.350Z,82.50
2023-02-13T22:05:54.018Z,82.70
2023-02-13T22:08:20.606Z,82.80
2023-02-13T22:10:59.776Z,82.70
2023-02-13T22:13:26.813Z,82.90
2023-02-13T22:16:03.724Z,83.30
2023-02-13T22:18:32.690Z,83.10
2023-02-13T22:21:04.065Z,83.10
2023-02-13T22:23:30.715Z,83.50
2023-02-13T22:25:57.288Z,83.50
2023-02-13T22:28:23.893Z,83.50
2023-02-13T22:30:50.569Z,83.70
2023-02-13T22:33:17.282Z,83.90
2023-02-13T22:35:43.865Z,84.00
2023-02-13T22:38:10.528Z,84.00
2023-02-13T22:40:37.884Z,84.20
2023-02-13T22:43:05.963Z,84.00
2023-02-13T22:45:39.271Z,83.90
2023-02-13T22:48:06.827Z,83.50
2023-02-13T22:50:34.544Z,83.60
2023-02-13T22:53:01.560Z,84.00
2023-02-13T22:55:28.197Z,84.20
2023-02-13T22:57:54.814Z,84.20
2023-02-13T23:00:23.005Z,84.20
2023-02-13T23:02:50.560Z,83.80
2023-02-13T23:05:18.120Z,83.70
2023-02-13T23:07:44.829Z,83.60
2023-02-13T23:10:11.777Z,83.80
2023-02-13T23:12:40.101Z,83.90
2023-02-13T23:15:10.029Z,84.10
2023-02-13T23:17:55.612Z,84.40
2023-02-13T23:20:23.196Z,84.60
2023-02-13T23:22:50.287Z,84.70
2023-02-13T23:25:17.180Z,84.90
2023-02-13T23:27:44.438Z,84.90
2023-02-13T23:30:13.913Z,84.90
2023-02-13T23:32:40.771Z,84.90
2023-02-13T23:35:07.607Z,85.10
2023-02-13T23:37:34.244Z,85.10
2023-02-13T23:40:00.963Z,85.10
2023-02-13T23:42:27.764Z,85.20
2023-02-13T23:44:54.445Z,85.30
2023-02-13T23:47:21.024Z,85.30
2023-02-13T23:49:47.721Z,85.30
2023-02-13T23:52:14.379Z,85.20
2023-02-13T23:54:41.197Z,85.10
2023-02-13T23:57:07.865Z,85.80
2023-02-13T23:59:36.618Z,84.60
